createdAt,value
2018-11-26T00:01:45.253Z,94.30
2018-11-26T00:04:14.300Z,94.00
2018-11-26T00:06:43.287Z,94.10
2018-11-26T00:09:13.308Z,94.10
2018-11-26T00:11:42.401Z,94.10
2018-11-26T00:14:11.441Z,94.20
2018-11-26T00:16:40.501Z,94.20
2018-11-26T00:19:09.516Z,94.20
2018-11-26T00:21:38.543Z,94.20
2018-11-26T00:24:07.566Z,94.20
2018-11-26T00:26:36.660Z,94.20
2018-11-26T00:29:05.675Z,94.20
2018-11-26T00:31:34.683Z,94.30
2018-11-26T00:34:03.711Z,94.20
2018-11-26T00:36:32.726Z,94.20
2018-11-26T00:39:01.748Z,94.20
2018-11-26T00:41:30.837Z,94.20
2018-11-26T00:43:59.842Z,94.20
2018-11-26T00:46:28.889Z,94.20
2018-11-26T00:48:57.926Z,94.20
2018-11-26T00:51:26.933Z,94.20
2018-11-26T00:53:56.037Z,94.20
2018-11-26T00:56:25.080Z,94.20
2018-11-26T00:58:54.058Z,94.20
2018-11-26T01:01:23.045Z,94.20
2018-11-26T01:03:52.111Z,94.20
2018-11-26T01:06:21.118Z,94.20
2018-11-26T01:08:50.106Z,94.20
2018-11-26T01:11:19.721Z,94.30
2018-11-26T01:13:48.799Z,94.20
2018-11-26T01:16:17.800Z,94.20
2018-11-26T01:18:46.805Z,94.20
2018-11-26T01:21:15.796Z,94.20
2018-11-26T01:23:44.824Z,94.20
2018-11-26T01:26:13.901Z,94.10
2018-11-26T01:28:42.969Z,94.20
2018-11-26T01:31:12.065Z,94.20
2018-11-26T01:33:41.172Z,94.20
2018-11-26T01:36:10.225Z,94.20
2018-11-26T01:38:39.267Z,94.20
2018-11-26T01:41:08.311Z,94.20
2018-11-26T01:43:37.346Z,94.20
2018-11-26T01:46:06.677Z,94.20
2018-11-26T01:48:35.709Z,94.20
2018-11-26T01:51:04.821Z,94.20
2018-11-26T01:53:33.865Z,94.20
2018-11-26T01:56:02.933Z,94.20
2018-11-26T01:58:31.989Z,94.20
2018-11-26T02:01:01.717Z,94.20
2018-11-26T02:03:31.733Z,94.10
2018-11-26T02:06:00.781Z,94.20
2018-11-26T02:08:29.856Z,94.10
2018-11-26T02:10:58.846Z,94.10
2018-11-26T02:13:28.035Z,94.00
2018-11-26T02:15:57.088Z,94.00
2018-11-26T02:18:26.137Z,93.90
2018-11-26T02:20:55.170Z,93.70
2018-11-26T02:23:24.185Z,93.90
2018-11-26T02:25:53.298Z,93.90
2018-11-26T02:28:22.296Z,93.80
2018-11-26T02:30:51.346Z,93.90
2018-11-26T02:33:20.353Z,94.10
2018-11-26T02:35:49.370Z,93.90
2018-11-26T02:38:18.435Z,93.90
2018-11-26T02:40:47.468Z,93.90
2018-11-26T02:43:16.602Z,93.80
2018-11-26T02:45:45.653Z,93.80
2018-11-26T02:48:14.657Z,94.10
2018-11-26T02:50:43.658Z,93.80
2018-11-26T02:53:12.670Z,93.80
2018-11-26T02:55:41.659Z,93.80
2018-11-26T02:58:10.837Z,93.80
2018-11-26T03:00:39.862Z,93.80
2018-11-26T03:03:08.913Z,93.80
2018-11-26T03:05:37.914Z,93.80
2018-11-26T03:08:06.909Z,94.10
2018-11-26T03:10:35.908Z,93.70
2018-11-26T03:13:04.951Z,93.70
2018-11-26T03:15:34.789Z,93.70
2018-11-26T03:18:03.845Z,93.60
2018-11-26T03:20:33.247Z,93.60
2018-11-26T03:23:03.307Z,93.60
2018-11-26T03:25:32.313Z,93.70
2018-11-26T03:28:01.328Z,93.70
2018-11-26T03:30:30.351Z,93.70
2018-11-26T03:32:59.500Z,93.80
2018-11-26T03:35:28.562Z,93.70
2018-11-26T03:37:57.678Z,93.70
2018-11-26T03:40:26.717Z,93.70
2018-11-26T03:42:55.726Z,93.60
2018-11-26T03:45:24.727Z,93.70
2018-11-26T03:47:53.793Z,93.70
2018-11-26T03:50:22.800Z,93.70
2018-11-26T03:52:51.809Z,93.70
2018-11-26T03:55:20.799Z,93.70
2018-11-26T03:57:49.833Z,93.70
2018-11-26T04:00:18.874Z,93.70
2018-11-26T04:02:47.881Z,93.70
2018-11-26T04:05:16.947Z,93.70
2018-11-26T04:07:46.018Z,93.70
2018-11-26T04:10:15.056Z,93.80
2018-11-26T04:12:44.089Z,93.80
2018-11-26T04:15:15.355Z,93.80
2018-11-26T04:17:44.387Z,93.80
2018-11-26T04:20:13.428Z,93.80
2018-11-26T04:22:42.457Z,93.80
2018-11-26T04:25:11.929Z,93.80
2018-11-26T04:27:41.080Z,93.80
2018-11-26T04:30:12.742Z,93.80
2018-11-26T04:32:41.767Z,94.10
2018-11-26T04:35:11.077Z,93.80
2018-11-26T04:37:40.161Z,93.80
2018-11-26T04:40:10.360Z,93.80
2018-11-26T04:42:39.415Z,93.90
2018-11-26T04:45:10.103Z,93.90
2018-11-26T04:47:39.820Z,93.90
2018-11-26T04:50:12.133Z,94.00
2018-11-26T04:52:41.263Z,94.00
2018-11-26T04:55:11.993Z,94.00
2018-11-26T04:57:42.716Z,94.00
2018-11-26T05:00:12.321Z,94.00
2018-11-26T05:02:41.427Z,94.10
2018-11-26T05:05:12.166Z,94.10
2018-11-26T05:07:41.217Z,94.10
2018-11-26T05:10:11.946Z,94.10
2018-11-26T05:12:40.973Z,94.10
2018-11-26T05:15:11.940Z,94.10
2018-11-26T05:17:40.946Z,94.10
2018-11-26T05:20:11.697Z,94.10
2018-11-26T05:22:40.797Z,94.10
2018-11-26T05:25:11.181Z,94.10
2018-11-26T05:27:40.198Z,94.10
2018-11-26T05:30:11.150Z,94.10
2018-11-26T05:32:40.249Z,94.10
2018-11-26T05:35:10.708Z,94.10
2018-11-26T05:37:39.857Z,94.10
2018-11-26T05:40:12.568Z,94.10
2018-11-26T05:42:41.836Z,94.10
2018-11-26T05:45:18.409Z,94.00
2018-11-26T05:47:47.418Z,94.00
2018-11-26T05:50:16.465Z,94.00
2018-11-26T05:52:45.618Z,94.00
2018-11-26T05:55:16.888Z,94.00
2018-11-26T05:57:46.918Z,94.00
2018-11-26T06:00:20.901Z,93.90
2018-11-26T06:02:49.888Z,93.90
2018-11-26T06:05:18.921Z,94.00
2018-11-26T06:07:47.977Z,94.00
2018-11-26T06:10:17.033Z,94.10
2018-11-26T06:12:46.056Z,94.20
2018-11-26T06:15:15.070Z,94.00
2018-11-26T06:17:44.101Z,94.00
2018-11-26T06:20:14.110Z,94.00
2018-11-26T06:22:46.025Z,94.00
2018-11-26T06:25:24.979Z,94.00
2018-11-26T06:27:54.241Z,94.00
2018-11-26T06:30:24.799Z,94.00
2018-11-26T06:32:55.414Z,94.00
2018-11-26T06:35:25.007Z,94.00
2018-11-26T06:37:54.666Z,94.00
2018-11-26T06:40:24.110Z,93.90
2018-11-26T06:42:57.466Z,93.90
2018-11-26T06:45:28.044Z,93.90
2018-11-26T06:48:05.093Z,93.90
2018-11-26T06:50:53.334Z,93.90
2018-11-26T06:53:23.047Z,93.90
2018-11-26T06:55:52.575Z,93.90
2018-11-26T06:58:22.132Z,93.90
2018-11-26T07:00:54.618Z,93.90
2018-11-26T07:03:25.051Z,93.90
2018-11-26T07:05:54.583Z,93.90
2018-11-26T07:08:24.075Z,93.80
2018-11-26T07:10:55.459Z,93.90
2018-11-26T07:13:25.645Z,93.80
2018-11-26T07:15:55.649Z,93.80
2018-11-26T07:18:26.655Z,93.70
2018-11-26T07:20:56.257Z,93.70
2018-11-26T07:23:25.556Z,93.60
2018-11-26T07:25:56.189Z,93.60
2018-11-26T07:28:27.181Z,93.70
2018-11-26T07:30:56.586Z,93.70
2018-11-26T07:33:26.236Z,93.70
2018-11-26T07:35:55.864Z,93.70
2018-11-26T07:38:25.364Z,93.70
2018-11-26T07:40:54.770Z,93.70
2018-11-26T07:43:24.479Z,93.60
2018-11-26T07:45:54.221Z,93.60
2018-11-26T07:48:23.712Z,93.50
2018-11-26T07:50:53.238Z,93.90
2018-11-26T07:53:23.119Z,93.60
2018-11-26T07:55:52.540Z,93.60
2018-11-26T07:58:22.080Z,93.60
2018-11-26T08:00:51.445Z,93.60
2018-11-26T08:03:22.189Z,93.70
2018-11-26T08:05:51.736Z,93.70
2018-11-26T08:08:21.211Z,93.70
2018-11-26T08:10:53.588Z,93.60
2018-11-26T08:13:24.319Z,93.70
2018-11-26T08:20:51.326Z,93.60
2018-11-26T08:23:20.341Z,93.60
2018-11-26T08:25:49.384Z,93.70
2018-11-26T08:28:18.405Z,93.80
2018-11-26T08:30:47.417Z,93.80
2018-11-26T08:33:16.449Z,93.80
2018-11-26T08:35:45.618Z,93.70
2018-11-26T08:38:20.092Z,93.70
2018-11-26T08:40:49.613Z,93.80
2018-11-26T08:43:24.653Z,93.80
2018-11-26T08:45:56.600Z,93.60
2018-11-26T08:48:30.238Z,93.50
2018-11-26T08:51:02.708Z,93.50
2018-11-26T08:53:31.935Z,93.40
2018-11-26T08:56:01.025Z,93.40
2018-11-26T08:58:30.014Z,93.40
2018-11-26T09:01:05.144Z,93.30
2018-11-26T09:03:40.216Z,93.40
2018-11-26T09:06:09.353Z,93.50
2018-11-26T09:08:38.802Z,93.50
2018-11-26T09:11:09.501Z,93.50
2018-11-26T09:13:38.619Z,93.50
2018-11-26T09:16:07.705Z,93.40
2018-11-26T09:18:36.796Z,93.40
2018-11-26T09:21:05.865Z,93.30
2018-11-26T09:23:34.920Z,93.30
2018-11-26T09:26:04.025Z,93.30
2018-11-26T09:28:33.055Z,93.40
2018-11-26T09:31:02.122Z,93.50
2018-11-26T09:33:31.174Z,93.50
2018-11-26T09:36:00.214Z,93.50
2018-11-26T09:38:29.377Z,93.30
2018-11-26T09:40:58.433Z,93.30
2018-11-26T09:43:27.545Z,93.40
2018-11-26T09:45:56.947Z,93.50
2018-11-26T09:48:25.965Z,93.50
2018-11-26T09:50:54.977Z,93.40
2018-11-26T09:53:24.077Z,93.30
2018-11-26T09:55:53.160Z,93.30
2018-11-26T09:58:23.035Z,93.40
2018-11-26T10:00:53.100Z,93.40
2018-11-26T10:03:23.152Z,93.40
2018-11-26T10:05:52.165Z,93.40
2018-11-26T10:08:21.305Z,93.30
2018-11-26T10:10:50.345Z,93.20
2018-11-26T10:13:19.364Z,93.20
2018-11-26T10:15:48.372Z,93.40
2018-11-26T10:18:17.373Z,92.90
2018-11-26T10:20:46.429Z,92.90
2018-11-26T10:23:15.648Z,92.90
2018-11-26T10:25:45.817Z,92.80
2018-11-26T10:28:15.726Z,92.80
2018-11-26T10:30:44.795Z,92.80
2018-11-26T10:33:14.851Z,92.60
2018-11-26T10:35:42.870Z,93.00
2018-11-26T10:38:11.925Z,93.10
2018-11-26T10:40:40.942Z,93.10
2018-11-26T10:43:11.764Z,93.10
2018-11-26T10:45:39.121Z,93.10
2018-11-26T10:48:08.948Z,93.10
2018-11-26T10:50:37.993Z,93.10
2018-11-26T10:53:07.178Z,93.10
2018-11-26T10:55:37.036Z,93.20
2018-11-26T10:58:06.975Z,93.30
2018-11-26T11:00:44.981Z,93.30
2018-11-26T11:03:14.093Z,93.20
2018-11-26T11:05:43.150Z,93.20
2018-11-26T11:08:12.177Z,93.30
2018-11-26T11:10:41.205Z,93.20
2018-11-26T11:13:10.292Z,93.10
2018-11-26T11:15:39.988Z,93.10
2018-11-26T11:18:09.243Z,93.10
2018-11-26T11:20:38.345Z,93.20
2018-11-26T11:23:09.130Z,93.10
2018-11-26T11:25:38.325Z,93.00
2018-11-26T11:28:07.626Z,93.00
2018-11-26T11:30:36.636Z,92.90
2018-11-26T11:35:34.548Z,93.20
2018-11-26T11:38:03.583Z,92.90
2018-11-26T11:40:32.742Z,92.90
2018-11-26T11:43:01.972Z,92.90
2018-11-26T11:45:32.755Z,92.90
2018-11-26T11:48:01.791Z,92.90
2018-11-26T11:50:30.825Z,92.90
2018-11-26T11:52:59.844Z,92.80
2018-11-26T11:55:28.874Z,92.90
2018-11-26T11:57:58.046Z,92.90
2018-11-26T12:00:36.302Z,93.00
2018-11-26T12:03:11.576Z,93.00
2018-11-26T12:05:40.640Z,93.00
2018-11-26T12:08:09.867Z,93.00
2018-11-26T12:10:39.747Z,93.00
2018-11-26T12:13:11.427Z,93.00
2018-11-26T12:15:45.657Z,93.10
2018-11-26T12:18:15.288Z,93.10
2018-11-26T12:20:45.470Z,93.00
2018-11-26T12:23:15.062Z,93.00
2018-11-26T12:25:45.074Z,93.00
2018-11-26T12:28:15.056Z,93.10
2018-11-26T12:30:46.589Z,93.10
2018-11-26T12:33:16.329Z,93.10
2018-11-26T12:35:46.573Z,93.00
2018-11-26T12:38:16.471Z,93.00
2018-11-26T12:40:46.070Z,93.00
2018-11-26T12:43:15.815Z,93.00
2018-11-26T12:45:48.049Z,93.00
2018-11-26T12:48:22.720Z,93.00
2018-11-26T12:51:24.304Z,93.00
2018-11-26T12:53:54.764Z,93.00
2018-11-26T12:56:24.361Z,93.40
2018-11-26T12:58:54.174Z,93.10
2018-11-26T13:01:26.919Z,93.10
2018-11-26T13:03:56.575Z,93.10
2018-11-26T13:06:26.153Z,92.90
2018-11-26T13:08:56.994Z,93.00
2018-11-26T13:11:27.503Z,93.00
2018-11-26T13:13:57.868Z,92.90
2018-11-26T13:21:24.178Z,93.10
2018-11-26T13:23:53.187Z,93.00
2018-11-26T13:26:22.221Z,93.00
2018-11-26T13:28:51.251Z,93.10
2018-11-26T13:31:20.266Z,93.10
2018-11-26T13:33:49.309Z,93.10
2018-11-26T13:36:18.429Z,93.10
2018-11-26T13:38:47.448Z,93.10
2018-11-26T13:41:16.457Z,93.10
2018-11-26T13:43:45.481Z,93.20
2018-11-26T13:46:14.531Z,92.90
2018-11-26T13:48:43.558Z,93.20
2018-11-26T13:51:12.659Z,93.20
2018-11-26T13:53:41.717Z,93.30
2018-11-26T13:56:10.770Z,93.30
2018-11-26T13:58:39.855Z,93.40
2018-11-26T14:01:08.866Z,93.30
2018-11-26T14:03:37.927Z,93.30
2018-11-26T14:06:07.007Z,93.40
2018-11-26T14:08:36.232Z,93.40
2018-11-26T14:11:05.559Z,93.40
2018-11-26T14:13:34.625Z,93.40
2018-11-26T14:16:03.886Z,93.40
2018-11-26T14:18:33.230Z,93.40
2018-11-26T14:21:02.338Z,93.40
2018-11-26T14:23:31.439Z,93.40
2018-11-26T14:26:00.478Z,93.40
2018-11-26T14:28:29.533Z,93.40
2018-11-26T14:30:58.679Z,93.40
2018-11-26T14:33:27.730Z,93.50
2018-11-26T14:35:56.752Z,93.40
2018-11-26T14:38:27.419Z,93.40
2018-11-26T14:40:57.608Z,93.40
2018-11-26T14:43:27.454Z,93.80
2018-11-26T14:45:59.172Z,93.50
2018-11-26T14:48:33.721Z,93.40
2018-11-26T14:51:03.623Z,93.50
2018-11-26T14:53:33.323Z,93.50
2018-11-26T14:56:04.101Z,93.50
2018-11-26T14:58:33.830Z,93.50
2018-11-26T15:01:09.570Z,93.50
2018-11-26T15:03:38.941Z,93.50
2018-11-26T15:06:08.611Z,93.50
2018-11-26T15:08:39.691Z,93.60
2018-11-26T15:11:10.062Z,93.60
2018-11-26T15:13:39.509Z,93.60
2018-11-26T15:16:09.259Z,93.60
2018-11-26T15:18:38.881Z,93.60
2018-11-26T15:21:08.864Z,93.60
2018-11-26T15:23:38.441Z,93.60
2018-11-26T15:26:08.262Z,93.60
2018-11-26T15:31:37.196Z,93.50
2018-11-26T15:34:07.081Z,93.50
2018-11-26T15:36:37.125Z,93.50
2018-11-26T15:39:09.840Z,93.50
2018-11-26T15:41:40.178Z,93.50
2018-11-26T15:44:09.803Z,93.50
2018-11-26T15:46:39.203Z,93.50
2018-11-26T15:49:08.881Z,93.50
2018-11-26T15:51:39.375Z,93.50
2018-11-26T15:54:09.361Z,93.50
2018-11-26T15:56:38.801Z,93.50
2018-11-26T15:59:16.561Z,93.60
2018-11-26T16:01:46.238Z,93.70
2018-11-26T16:04:15.631Z,93.60
2018-11-26T16:06:45.605Z,93.70
2018-11-26T16:09:15.178Z,93.70
2018-11-26T16:11:45.928Z,93.60
2018-11-26T16:14:15.489Z,93.60
2018-11-26T16:16:44.974Z,93.70
2018-11-26T16:19:14.390Z,93.70
2018-11-26T16:21:43.856Z,93.60
2018-11-26T16:24:14.166Z,93.60
2018-11-26T16:26:44.621Z,93.60
2018-11-26T16:29:14.979Z,93.60
2018-11-26T16:31:45.197Z,93.60
2018-11-26T16:34:15.013Z,93.70
2018-11-26T16:36:44.655Z,93.60
2018-11-26T16:39:15.253Z,93.60
2018-11-26T16:41:46.266Z,93.60
2018-11-26T16:44:17.944Z,93.60
2018-11-26T16:46:47.408Z,93.60
2018-11-26T16:49:17.118Z,93.60
2018-11-26T16:51:48.322Z,93.60
2018-11-26T16:54:17.929Z,93.60
2018-11-26T16:57:16.121Z,93.40
2018-11-26T16:59:46.205Z,93.60
2018-11-26T17:05:52.050Z,93.50
2018-11-26T17:08:21.062Z,93.40
2018-11-26T17:10:50.106Z,93.40
2018-11-26T17:13:19.222Z,93.40
2018-11-26T17:15:49.279Z,93.40
2018-11-26T17:18:18.391Z,93.40
2018-11-26T17:20:47.464Z,93.30
2018-11-26T17:23:16.498Z,93.30
2018-11-26T17:25:45.622Z,93.30
2018-11-26T17:28:14.733Z,93.30
2018-11-26T17:30:43.841Z,93.30
2018-11-26T17:33:13.382Z,93.30
2018-11-26T17:35:42.423Z,93.40
2018-11-26T17:38:11.466Z,93.30
2018-11-26T17:40:40.942Z,93.30
2018-11-26T17:43:12.911Z,93.30
2018-11-26T17:45:41.962Z,93.30
2018-11-26T17:48:10.974Z,93.30
2018-11-26T17:50:42.171Z,93.20
2018-11-26T17:53:13.942Z,93.20
2018-11-26T17:55:49.548Z,93.20
2018-11-26T17:58:20.018Z,93.20
2018-11-26T18:01:53.278Z,93.20
2018-11-26T18:04:22.319Z,93.20
2018-11-26T18:06:51.423Z,93.20
2018-11-26T18:09:22.837Z,93.20
2018-11-26T18:11:49.479Z,93.20
2018-11-26T18:14:18.558Z,93.50
2018-11-26T18:16:47.902Z,93.20
2018-11-26T18:19:17.130Z,93.20
2018-11-26T18:21:46.159Z,93.20
2018-11-26T18:24:15.181Z,93.20
2018-11-26T18:26:44.230Z,93.20
2018-11-26T18:29:13.287Z,93.20
2018-11-26T18:31:42.523Z,93.20
2018-11-26T18:34:11.651Z,93.20
2018-11-26T18:36:40.705Z,93.20
2018-11-26T18:39:10.910Z,93.20
2018-11-26T18:41:39.991Z,93.20
2018-11-26T18:44:09.057Z,93.20
2018-11-26T18:46:38.095Z,93.60
2018-11-26T18:49:07.104Z,93.20
2018-11-26T18:51:36.139Z,93.10
2018-11-26T18:54:05.332Z,93.10
2018-11-26T18:56:34.435Z,93.10
2018-11-26T18:59:03.483Z,93.10
2018-11-26T19:01:32.531Z,93.10
2018-11-26T19:04:01.532Z,93.10
2018-11-26T19:06:30.572Z,93.10
2018-11-26T19:09:00.518Z,93.00
2018-11-26T19:11:29.662Z,93.00
2018-11-26T19:14:06.285Z,93.00
2018-11-26T19:16:41.963Z,92.90
2018-11-26T19:19:11.066Z,92.90
2018-11-26T19:21:40.734Z,92.90
2018-11-26T19:24:10.338Z,92.90
2018-11-26T19:26:39.991Z,93.00
2018-11-26T19:29:09.415Z,92.90
2018-11-26T19:31:38.550Z,92.90
2018-11-26T19:34:07.626Z,92.90
2018-11-26T19:36:36.656Z,92.90
2018-11-26T19:39:09.042Z,92.90
2018-11-26T19:41:38.415Z,92.90
2018-11-26T19:44:07.539Z,92.80
2018-11-26T19:46:36.562Z,92.80
2018-11-26T19:49:05.731Z,92.80
2018-11-26T19:51:34.851Z,93.10
2018-11-26T19:54:04.023Z,92.80
2018-11-26T19:56:33.109Z,92.80
2018-11-26T19:59:02.153Z,92.80
2018-11-26T20:01:31.183Z,92.90
2018-11-26T20:04:21.687Z,92.90
2018-11-26T20:06:50.706Z,92.90
2018-11-26T20:09:19.720Z,92.80
2018-11-26T20:11:48.789Z,92.80
2018-11-26T20:14:25.693Z,92.90
2018-11-26T20:16:46.990Z,92.90
2018-11-26T20:19:16.231Z,92.90
2018-11-26T20:21:45.238Z,93.00
2018-11-26T20:24:15.378Z,93.00
2018-11-26T20:26:44.456Z,93.10
2018-11-26T20:29:13.511Z,93.10
2018-11-26T20:31:42.529Z,93.20
2018-11-26T20:34:11.534Z,93.20
2018-11-26T20:36:40.624Z,93.20
2018-11-26T20:39:11.765Z,93.20
2018-11-26T20:41:41.104Z,93.10
2018-11-26T20:44:11.657Z,93.10
2018-11-26T20:46:41.905Z,93.10
2018-11-26T20:49:12.987Z,93.10
2018-11-26T20:51:42.521Z,93.10
2018-11-26T20:54:12.580Z,93.10
2018-11-26T20:56:42.116Z,93.10
2018-11-26T20:59:37.587Z,93.10
2018-11-26T21:02:07.803Z,93.10
2018-11-26T21:04:40.160Z,93.20
2018-11-26T21:07:10.617Z,93.10
2018-11-26T21:09:41.771Z,93.10
2018-11-26T21:12:11.415Z,93.10
2018-11-26T21:14:41.009Z,93.10
2018-11-26T21:17:11.277Z,93.10
2018-11-26T21:19:43.127Z,93.00
2018-11-26T21:22:12.751Z,93.10
2018-11-26T21:24:42.439Z,93.10
2018-11-26T21:27:12.291Z,93.10
2018-11-26T21:29:45.273Z,93.10
2018-11-26T21:32:14.661Z,93.10
2018-11-26T21:35:00.074Z,93.30
2018-11-26T21:37:29.635Z,93.10
2018-11-26T21:40:00.959Z,93.10
2018-11-26T21:42:31.077Z,93.10
2018-11-26T21:45:02.527Z,93.10
2018-11-26T21:47:32.177Z,93.10
2018-11-26T21:50:02.312Z,93.10
2018-11-26T21:52:32.505Z,93.10
2018-11-26T21:55:03.804Z,93.20
2018-11-26T21:57:34.619Z,93.10
2018-11-26T22:00:07.866Z,93.20
2018-11-26T22:02:38.059Z,93.20
2018-11-26T22:05:09.448Z,93.60
2018-11-26T22:07:38.951Z,93.20
2018-11-26T22:10:14.384Z,93.10
2018-11-26T22:15:56.147Z,93.20
2018-11-26T22:18:25.191Z,93.10
2018-11-26T22:20:54.263Z,93.10
2018-11-26T22:23:23.326Z,93.20
2018-11-26T22:25:52.438Z,93.10
2018-11-26T22:28:21.465Z,93.10
2018-11-26T22:30:50.679Z,93.10
2018-11-26T22:33:19.849Z,93.10
2018-11-26T22:35:49.069Z,93.10
2018-11-26T22:38:20.746Z,93.20
2018-11-26T22:40:52.170Z,93.10
2018-11-26T22:43:21.338Z,93.10
2018-11-26T22:45:50.429Z,93.10
2018-11-26T22:48:21.878Z,93.10
2018-11-26T22:50:51.370Z,93.10
2018-11-26T22:53:22.711Z,93.10
2018-11-26T22:55:57.910Z,93.20
2018-11-26T22:58:29.172Z,93.10
2018-11-26T23:01:00.476Z,93.10
2018-11-26T23:03:32.292Z,93.10
2018-11-26T23:10:59.746Z,93.00
2018-11-26T23:13:28.970Z,93.10
2018-11-26T23:15:59.981Z,93.10
2018-11-26T23:18:37.610Z,93.20
2018-11-26T23:21:07.053Z,93.20
2018-11-26T23:23:36.379Z,93.20
2018-11-26T23:26:06.984Z,93.20
2018-11-26T23:28:46.205Z,93.10
2018-11-26T23:31:16.242Z,93.00
2018-11-26T23:33:45.461Z,93.00
2018-11-26T23:36:15.519Z,93.00
2018-11-26T23:38:44.904Z,92.90
2018-11-26T23:41:14.358Z,92.90
2018-11-26T23:43:43.661Z,92.90
2018-11-26T23:46:13.262Z,93.00
2018-11-26T23:48:44.283Z,93.00
2018-11-26T23:51:15.117Z,93.00
2018-11-26T23:53:44.913Z,93.00
2018-11-26T23:56:15.295Z,93.00
2018-11-26T23:58:46.791Z,93.00
